sensor_id;sensor_type;location;lat;lon;timestamp;pressure;altitude;pressure_sealevel;temperature;humidity
13767;BME280;47980;48.794;9.176;2023-03-01T00:01:38;99003.25;;;0.52;71.27
13767;BME280;47980;48.794;9.176;2023-03-01T00:04:09;99010.63;;;0.72;70.48
13767;BME280;47980;48.794;9.176;2023-03-01T00:06:43;99006.13;;;0.67;70.72
13767;BME280;47980;48.794;9.176;2023-03-01T00:09:16;99008.34;;;0.59;71.31
13767;BME280;47980;48.794;9.176;2023-03-01T00:11:48;99012.13;;;0.51;70.67
13767;BME280;47980;48.794;9.176;2023-03-01T00:14:20;99003.81;;;0.54;71.09
13767;BME280;47980;48.794;9.176;2023-03-01T00:16:52;99005.72;;;0.92;69.54
13767;BME280;47980;48.794;9.176;2023-03-01T00:19:23;99002.22;;;0.87;70.01
13767;BME280;47980;48.794;9.176;2023-03-01T00:21:56;99008.66;;;0.62;70.87
13767;BME280;47980;48.794;9.176;2023-03-01T00:24:28;99012.06;;;0.63;70.71
13767;BME280;47980;48.794;9.176;2023-03-01T00:26:59;99008.19;;;0.65;70.34
13767;BME280;47980;48.794;9.176;2023-03-01T00:29:31;99002.22;;;0.53;71.32
13767;BME280;47980;48.794;9.176;2023-03-01T00:32:02;99007.44;;;0.53;71.53
13767;BME280;47980;48.794;9.176;2023-03-01T00:34:34;99008.09;;;0.60;70.45
13767;BME280;47980;48.794;9.176;2023-03-01T00:37:07;99015.09;;;0.43;71.56
13767;BME280;47980;48.794;9.176;2023-03-01T00:39:38;99008.00;;;0.38;72.23
13767;BME280;47980;48.794;9.176;2023-03-01T00:42:10;99009.16;;;0.31;72.19
13767;BME280;47980;48.794;9.176;2023-03-01T00:44:42;99000.22;;;0.27;72.53
13767;BME280;47980;48.794;9.176;2023-03-01T00:47:13;99004.34;;;0.39;72.26
13767;BME280;47980;48.794;9.176;2023-03-01T00:49:45;99004.53;;;0.33;72.46
13767;BME280;47980;48.794;9.176;2023-03-01T00:52:18;99001.66;;;0.34;72.84
13767;BME280;47980;48.794;9.176;2023-03-01T00:54:52;99006.97;;;0.39;72.65
13767;BME280;47980;48.794;9.176;2023-03-01T00:57:23;99007.03;;;0.28;72.87
13767;BME280;47980;48.794;9.176;2023-03-01T00:59:55;99006.22;;;0.27;72.96
13767;BME280;47980;48.794;9.176;2023-03-01T01:02:26;98995.63;;;0.17;73.15
13767;BME280;47980;48.794;9.176;2023-03-01T01:04:58;99000.97;;;0.10;73.74
13767;BME280;47980;48.794;9.176;2023-03-01T01:07:31;99003.91;;;0.14;73.75
13767;BME280;47980;48.794;9.176;2023-03-01T01:10:03;99001.88;;;0.16;73.48
13767;BME280;47980;48.794;9.176;2023-03-01T01:12:34;99001.09;;;0.04;74.05
13767;BME280;47980;48.794;9.176;2023-03-01T01:15:08;98997.94;;;0.02;74.23
13767;BME280;47980;48.794;9.176;2023-03-01T01:17:42;98993.78;;;0.01;75.12
13767;BME280;47980;48.794;9.176;2023-03-01T01:20:14;98991.84;;;-0.04;74.54
13767;BME280;47980;48.794;9.176;2023-03-01T01:22:47;98993.16;;;0.10;74.94
13767;BME280;47980;48.794;9.176;2023-03-01T01:25:19;99002.09;;;0.14;74.53
13767;BME280;47980;48.794;9.176;2023-03-01T01:27:51;98993.72;;;0.12;74.59
13767;BME280;47980;48.794;9.176;2023-03-01T01:30:22;98986.94;;;0.11;74.66
13767;BME280;47980;48.794;9.176;2023-03-01T01:32:54;98980.50;;;0.02;74.36
13767;BME280;47980;48.794;9.176;2023-03-01T01:35:25;98979.25;;;0.05;73.89
13767;BME280;47980;48.794;9.176;2023-03-01T01:37:58;98983.75;;;0.09;74.81
13767;BME280;47980;48.794;9.176;2023-03-01T01:40:29;98973.78;;;0.06;74.52
13767;BME280;47980;48.794;9.176;2023-03-01T01:43:01;98964.97;;;-0.05;74.95
13767;BME280;47980;48.794;9.176;2023-03-01T01:45:34;98974.63;;;-0.05;74.76
13767;BME280;47980;48.794;9.176;2023-03-01T01:48:10;98968.09;;;0.09;74.91
13767;BME280;47980;48.794;9.176;2023-03-01T01:50:44;98964.78;;;0.14;74.02
13767;BME280;47980;48.794;9.176;2023-03-01T01:53:19;98967.19;;;0.04;74.81
13767;BME280;47980;48.794;9.176;2023-03-01T01:55:54;98968.81;;;0.21;74.55
13767;BME280;47980;48.794;9.176;2023-03-01T01:58:29;98961.31;;;0.08;74.41
13767;BME280;47980;48.794;9.176;2023-03-01T02:01:02;98954.91;;;0.16;74.45
13767;BME280;47980;48.794;9.176;2023-03-01T02:03:38;98955.09;;;0.26;74.41
13767;BME280;47980;48.794;9.176;2023-03-01T02:06:15;98947.34;;;0.31;73.79
13767;BME280;47980;48.794;9.176;2023-03-01T02:08:52;98952.41;;;0.38;73.45
13767;BME280;47980;48.794;9.176;2023-03-01T02:11:24;98950.81;;;0.54;72.44
13767;BME280;47980;48.794;9.176;2023-03-01T02:13:56;98940.47;;;0.42;73.00
13767;BME280;47980;48.794;9.176;2023-03-01T02:16:28;98943.00;;;0.54;72.72
13767;BME280;47980;48.794;9.176;2023-03-01T02:19:03;98933.81;;;0.68;72.76
13767;BME280;47980;48.794;9.176;2023-03-01T02:21:42;98932.41;;;0.60;71.67
13767;BME280;47980;48.794;9.176;2023-03-01T02:24:25;98923.88;;;0.48;73.08
13767;BME280;47980;48.794;9.176;2023-03-01T02:27:01;98930.66;;;0.66;72.77
13767;BME280;47980;48.794;9.176;2023-03-01T02:29:34;98922.28;;;0.64;71.64
13767;BME280;47980;48.794;9.176;2023-03-01T02:32:06;98923.31;;;0.63;71.42
13767;BME280;47980;48.794;9.176;2023-03-01T02:34:38;98918.97;;;0.52;72.02
13767;BME280;47980;48.794;9.176;2023-03-01T02:37:13;98919.25;;;0.72;72.20
13767;BME280;47980;48.794;9.176;2023-03-01T02:39:54;98914.78;;;0.89;71.90
13767;BME280;47980;48.794;9.176;2023-03-01T02:42:32;98909.59;;;0.72;71.64
13767;BME280;47980;48.794;9.176;2023-03-01T02:45:06;98918.75;;;0.92;71.20
13767;BME280;47980;48.794;9.176;2023-03-01T02:47:38;98913.09;;;0.61;72.08
13767;BME280;47980;48.794;9.176;2023-03-01T02:50:18;98905.41;;;0.71;71.00
13767;BME280;47980;48.794;9.176;2023-03-01T02:52:57;98907.13;;;0.83;70.58
13767;BME280;47980;48.794;9.176;2023-03-01T02:55:33;98902.06;;;0.76;72.02
13767;BME280;47980;48.794;9.176;2023-03-01T02:58:04;98900.75;;;0.40;72.58
13767;BME280;47980;48.794;9.176;2023-03-01T03:00:41;98898.72;;;0.42;73.19
13767;BME280;47980;48.794;9.176;2023-03-01T03:03:16;98885.84;;;0.91;71.66
13767;BME280;47980;48.794;9.176;2023-03-01T03:05:49;98883.38;;;0.62;71.78
13767;BME280;47980;48.794;9.176;2023-03-01T03:08:20;98890.56;;;0.55;72.94
13767;BME280;47980;48.794;9.176;2023-03-01T03:10:53;98882.81;;;0.60;72.74
13767;BME280;47980;48.794;9.176;2023-03-01T03:13:26;98889.69;;;0.50;73.48
13767;BME280;47980;48.794;9.176;2023-03-01T03:16:02;98876.22;;;0.58;72.75
13767;BME280;47980;48.794;9.176;2023-03-01T03:18:33;98880.03;;;0.50;73.78
13767;BME280;47980;48.794;9.176;2023-03-01T03:21:07;98874.44;;;0.58;73.64
13767;BME280;47980;48.794;9.176;2023-03-01T03:23:40;98868.34;;;1.13;71.14
13767;BME280;47980;48.794;9.176;2023-03-01T03:26:12;98875.75;;;1.00;70.66
13767;BME280;47980;48.794;9.176;2023-03-01T03:28:45;98874.06;;;0.88;71.63
13767;BME280;47980;48.794;9.176;2023-03-01T03:31:18;98877.31;;;0.79;72.02
13767;BME280;47980;48.794;9.176;2023-03-01T03:33:49;98875.63;;;1.11;70.04
13767;BME280;47980;48.794;9.176;2023-03-01T03:36:23;98863.84;;;1.09;71.07
13767;BME280;47980;48.794;9.176;2023-03-01T03:38:55;98875.81;;;1.05;70.25
13767;BME280;47980;48.794;9.176;2023-03-01T03:41:26;98868.53;;;0.85;70.85
13767;BME280;47980;48.794;9.176;2023-03-01T03:43:58;98878.19;;;0.84;72.31
13767;BME280;47980;48.794;9.176;2023-03-01T03:46:31;98878.81;;;0.75;72.27
13767;BME280;47980;48.794;9.176;2023-03-01T03:49:02;98884.66;;;0.82;71.65
13767;BME280;47980;48.794;9.176;2023-03-01T03:51:34;98875.59;;;0.51;74.07
13767;BME280;47980;48.794;9.176;2023-03-01T03:54:05;98864.78;;;0.59;73.78
13767;BME280;47980;48.794;9.176;2023-03-01T03:56:37;98871.94;;;0.68;73.38
13767;BME280;47980;48.794;9.176;2023-03-01T03:59:08;98863.91;;;0.53;74.24
13767;BME280;47980;48.794;9.176;2023-03-01T04:01:42;98866.50;;;0.70;74.03
13767;BME280;47980;48.794;9.176;2023-03-01T04:04:15;98863.44;;;0.95;73.37
13767;BME280;47980;48.794;9.176;2023-03-01T04:06:49;98861.00;;;0.88;72.83
13767;BME280;47980;48.794;9.176;2023-03-01T04:09:20;98856.69;;;0.77;73.41
13767;BME280;47980;48.794;9.176;2023-03-01T04:11:52;98851.44;;;0.77;73.36
13767;BME280;47980;48.794;9.176;2023-03-01T04:14:23;98858.22;;;0.95;73.19
13767;BME280;47980;48.794;9.176;2023-03-01T04:16:56;98845.69;;;0.97;72.34
13767;BME280;47980;48.794;9.176;2023-03-01T04:19:27;98845.03;;;1.07;72.88
13767;BME280;47980;48.794;9.176;2023-03-01T04:21:59;98846.38;;;1.09;71.80
13767;BME280;47980;48.794;9.176;2023-03-01T04:24:37;98839.84;;;1.12;72.45
13767;BME280;47980;48.794;9.176;2023-03-01T04:27:09;98845.06;;;0.90;72.35
13767;BME280;47980;48.794;9.176;2023-03-01T04:29:40;98840.63;;;1.12;72.45
13767;BME280;47980;48.794;9.176;2023-03-01T04:32:13;98847.19;;;1.15;71.92
13767;BME280;47980;48.794;9.176;2023-03-01T04:34:46;98847.50;;;1.18;71.30
13767;BME280;47980;48.794;9.176;2023-03-01T04:37:17;98847.25;;;1.42;70.05
13767;BME280;47980;48.794;9.176;2023-03-01T04:39:49;98846.88;;;1.33;71.03
13767;BME280;47980;48.794;9.176;2023-03-01T04:42:20;98840.75;;;1.23;71.86
13767;BME280;47980;48.794;9.176;2023-03-01T04:44:52;98839.44;;;1.20;71.71
13767;BME280;47980;48.794;9.176;2023-03-01T04:47:25;98837.91;;;1.24;70.79
13767;BME280;47980;48.794;9.176;2023-03-01T04:49:56;98840.38;;;1.36;71.41
13767;BME280;47980;48.794;9.176;2023-03-01T04:52:28;98841.47;;;1.40;70.48
13767;BME280;47980;48.794;9.176;2023-03-01T04:54:59;98835.34;;;1.29;70.82
13767;BME280;47980;48.794;9.176;2023-03-01T04:57:31;98839.00;;;1.06;72.50
13767;BME280;47980;48.794;9.176;2023-03-01T05:00:03;98836.53;;;1.16;71.72
13767;BME280;47980;48.794;9.176;2023-03-01T05:02:53;98828.59;;;1.33;71.29
13767;BME280;47980;48.794;9.176;2023-03-01T05:05:27;98839.56;;;1.57;71.11
13767;BME280;47980;48.794;9.176;2023-03-01T05:08:00;98834.38;;;1.35;69.93
13767;BME280;47980;48.794;9.176;2023-03-01T05:10:34;98842.13;;;1.30;70.67
13767;BME280;47980;48.794;9.176;2023-03-01T05:13:06;98842.34;;;1.51;69.84
13767;BME280;47980;48.794;9.176;2023-03-01T05:15:37;98838.59;;;1.41;70.39
13767;BME280;47980;48.794;9.176;2023-03-01T05:18:11;98839.78;;;1.56;70.13
13767;BME280;47980;48.794;9.176;2023-03-01T05:20:42;98833.69;;;1.23;70.96
13767;BME280;47980;48.794;9.176;2023-03-01T05:23:14;98828.50;;;1.50;70.70
13767;BME280;47980;48.794;9.176;2023-03-01T05:25:46;98832.28;;;1.37;70.41
13767;BME280;47980;48.794;9.176;2023-03-01T05:28:18;98828.22;;;1.47;70.34
13767;BME280;47980;48.794;9.176;2023-03-01T05:30:50;98831.91;;;1.24;71.71
13767;BME280;47980;48.794;9.176;2023-03-01T05:33:24;98832.75;;;1.34;71.82
13767;BME280;47980;48.794;9.176;2023-03-01T05:35:59;98841.47;;;1.40;70.95
13767;BME280;47980;48.794;9.176;2023-03-01T05:38:31;98840.59;;;1.34;70.58
13767;BME280;47980;48.794;9.176;2023-03-01T05:41:03;98840.38;;;1.36;70.70
13767;BME280;47980;48.794;9.176;2023-03-01T05:43:35;98845.84;;;1.34;71.40
13767;BME280;47980;48.794;9.176;2023-03-01T05:46:06;98837.88;;;1.46;71.16
13767;BME280;47980;48.794;9.176;2023-03-01T05:48:43;98838.69;;;1.52;70.59
13767;BME280;47980;48.794;9.176;2023-03-01T05:51:15;98833.63;;;1.40;70.38
13767;BME280;47980;48.794;9.176;2023-03-01T05:53:47;98830.38;;;1.28;72.16
13767;BME280;47980;48.794;9.176;2023-03-01T05:56:19;98828.09;;;1.36;70.94
13767;BME280;47980;48.794;9.176;2023-03-01T05:58:52;98827.53;;;1.34;71.78
13767;BME280;47980;48.794;9.176;2023-03-01T06:01:24;98823.25;;;1.23;72.96
13767;BME280;47980;48.794;9.176;2023-03-01T06:03:57;98817.28;;;1.55;70.89
13767;BME280;47980;48.794;9.176;2023-03-01T06:06:30;98824.44;;;1.64;69.37
13767;BME280;47980;48.794;9.176;2023-03-01T06:09:05;98813.34;;;1.52;71.12
13767;BME280;47980;48.794;9.176;2023-03-01T06:11:37;98817.69;;;1.41;71.46
13767;BME280;47980;48.794;9.176;2023-03-01T06:14:09;98815.53;;;1.60;71.36
13767;BME280;47980;48.794;9.176;2023-03-01T06:16:43;98817.19;;;1.72;70.28
13767;BME280;47980;48.794;9.176;2023-03-01T06:19:16;98816.63;;;1.64;69.67
13767;BME280;47980;48.794;9.176;2023-03-01T06:21:48;98821.41;;;1.46;71.12
13767;BME280;47980;48.794;9.176;2023-03-01T06:24:21;98820.28;;;1.63;69.78
13767;BME280;47980;48.794;9.176;2023-03-01T06:26:53;98822.34;;;1.61;69.35
13767;BME280;47980;48.794;9.176;2023-03-01T06:29:25;98817.78;;;1.52;70.33
13767;BME280;47980;48.794;9.176;2023-03-01T06:31:57;98811.50;;;1.80;69.36
13767;BME280;47980;48.794;9.176;2023-03-01T06:34:31;98809.09;;;1.73;70.12
13767;BME280;47980;48.794;9.176;2023-03-01T06:37:02;98805.59;;;1.62;70.01
13767;BME280;47980;48.794;9.176;2023-03-01T06:39:35;98817.09;;;1.61;69.91
13767;BME280;47980;48.794;9.176;2023-03-01T06:42:07;98824.50;;;1.69;70.23
13767;BME280;47980;48.794;9.176;2023-03-01T06:44:40;98831.56;;;1.69;70.82
13767;BME280;47980;48.794;9.176;2023-03-01T06:47:11;98834.66;;;1.66;70.48
13767;BME280;47980;48.794;9.176;2023-03-01T06:49:44;98830.19;;;2.26;67.94
13767;BME280;47980;48.794;9.176;2023-03-01T06:52:16;98824.28;;;2.08;68.65
13767;BME280;47980;48.794;9.176;2023-03-01T06:54:47;98830.13;;;1.88;68.55
13767;BME280;47980;48.794;9.176;2023-03-01T06:57:19;98834.00;;;1.81;68.84
13767;BME280;47980;48.794;9.176;2023-03-01T06:59:51;98828.28;;;1.84;69.29
13767;BME280;47980;48.794;9.176;2023-03-01T07:02:22;98819.63;;;2.15;67.86
13767;BME280;47980;48.794;9.176;2023-03-01T07:04:55;98823.25;;;1.77;68.78
13767;BME280;47980;48.794;9.176;2023-03-01T07:07:27;98822.44;;;1.72;69.13
13767;BME280;47980;48.794;9.176;2023-03-01T07:09:58;98822.75;;;1.80;69.62
13767;BME280;47980;48.794;9.176;2023-03-01T07:12:30;98818.47;;;1.69;69.23
13767;BME280;47980;48.794;9.176;2023-03-01T07:15:02;98811.63;;;1.95;69.04
13767;BME280;47980;48.794;9.176;2023-03-01T07:17:34;98814.31;;;1.73;68.99
13767;BME280;47980;48.794;9.176;2023-03-01T07:20:09;98806.09;;;1.59;70.37
13767;BME280;47980;48.794;9.176;2023-03-01T07:22:41;98807.69;;;1.60;70.12
13767;BME280;47980;48.794;9.176;2023-03-01T07:25:13;98815.56;;;1.65;69.39
13767;BME280;47980;48.794;9.176;2023-03-01T07:27:49;98808.81;;;2.07;67.73
13767;BME280;47980;48.794;9.176;2023-03-01T07:30:21;98807.19;;;1.96;67.87
13767;BME280;47980;48.794;9.176;2023-03-01T07:32:56;98807.81;;;1.76;69.00
13767;BME280;47980;48.794;9.176;2023-03-01T07:35:30;98795.09;;;1.57;68.48
13767;BME280;47980;48.794;9.176;2023-03-01T07:38:03;98796.47;;;1.97;69.62
13767;BME280;47980;48.794;9.176;2023-03-01T07:40:35;98791.34;;;1.75;68.18
13767;BME280;47980;48.794;9.176;2023-03-01T07:43:07;98796.94;;;1.89;67.91
13767;BME280;47980;48.794;9.176;2023-03-01T07:45:38;98803.63;;;1.75;68.75
13767;BME280;47980;48.794;9.176;2023-03-01T07:48:10;98794.56;;;1.87;68.05
13767;BME280;47980;48.794;9.176;2023-03-01T07:50:43;98783.59;;;1.90;67.77
13767;BME280;47980;48.794;9.176;2023-03-01T07:53:14;98792.19;;;2.23;66.99
13767;BME280;47980;48.794;9.176;2023-03-01T07:55:46;98782.94;;;2.10;67.74
13767;BME280;47980;48.794;9.176;2023-03-01T07:58:17;98782.06;;;1.95;68.28
13767;BME280;47980;48.794;9.176;2023-03-01T08:00:49;98778.44;;;2.01;67.36
13767;BME280;47980;48.794;9.176;2023-03-01T08:03:21;98780.56;;;2.04;67.10
13767;BME280;47980;48.794;9.176;2023-03-01T08:05:54;98777.09;;;2.35;66.66
13767;BME280;47980;48.794;9.176;2023-03-01T08:08:26;98777.69;;;2.53;66.00
13767;BME280;47980;48.794;9.176;2023-03-01T08:10:58;98777.84;;;2.31;66.17
13767;BME280;47980;48.794;9.176;2023-03-01T08:13:30;98774.16;;;2.27;66.95
13767;BME280;47980;48.794;9.176;2023-03-01T08:16:03;98775.31;;;2.46;66.16
13767;BME280;47980;48.794;9.176;2023-03-01T08:18:35;98777.94;;;2.46;65.25
13767;BME280;47980;48.794;9.176;2023-03-01T08:21:09;98771.78;;;2.73;64.68
13767;BME280;47980;48.794;9.176;2023-03-01T08:23:42;98781.53;;;2.35;66.45
13767;BME280;47980;48.794;9.176;2023-03-01T08:26:15;98773.06;;;2.75;65.01
13767;BME280;47980;48.794;9.176;2023-03-01T08:28:49;98774.91;;;2.75;65.84
13767;BME280;47980;48.794;9.176;2023-03-01T08:31:23;98767.56;;;2.72;64.54
13767;BME280;47980;48.794;9.176;2023-03-01T08:33:56;98769.44;;;2.81;64.28
13767;BME280;47980;48.794;9.176;2023-03-01T08:36:33;98770.22;;;2.82;64.21
13767;BME280;47980;48.794;9.176;2023-03-01T08:39:07;98773.22;;;3.21;63.84
13767;BME280;47980;48.794;9.176;2023-03-01T08:41:39;98770.34;;;3.18;63.72
13767;BME280;47980;48.794;9.176;2023-03-01T08:44:12;98776.66;;;3.37;63.83
13767;BME280;47980;48.794;9.176;2023-03-01T08:46:44;98765.59;;;3.14;63.11
13767;BME280;47980;48.794;9.176;2023-03-01T08:49:18;98762.31;;;2.61;65.20
13767;BME280;47980;48.794;9.176;2023-03-01T08:51:51;98764.28;;;3.12;64.04
13767;BME280;47980;48.794;9.176;2023-03-01T08:54:23;98753.03;;;3.22;62.68
13767;BME280;47980;48.794;9.176;2023-03-01T08:56:55;98759.34;;;3.31;63.20
13767;BME280;47980;48.794;9.176;2023-03-01T08:59:29;98759.34;;;3.41;62.54
13767;BME280;47980;48.794;9.176;2023-03-01T09:02:10;98758.78;;;3.19;62.21
13767;BME280;47980;48.794;9.176;2023-03-01T09:04:43;98747.47;;;2.98;63.42
13767;BME280;47980;48.794;9.176;2023-03-01T09:07:16;98748.88;;;3.67;62.26
13767;BME280;47980;48.794;9.176;2023-03-01T09:09:48;98748.88;;;3.36;61.87
13767;BME280;47980;48.794;9.176;2023-03-01T09:12:23;98745.22;;;3.52;62.00
13767;BME280;47980;48.794;9.176;2023-03-01T09:14:56;98737.06;;;3.54;61.78
13767;BME280;47980;48.794;9.176;2023-03-01T09:17:27;98742.59;;;3.57;61.67
13767;BME280;47980;48.794;9.176;2023-03-01T09:19:59;98727.63;;;3.78;61.64
13767;BME280;47980;48.794;9.176;2023-03-01T09:22:32;98722.38;;;3.78;61.09
13767;BME280;47980;48.794;9.176;2023-03-01T09:25:05;98723.91;;;3.95;60.99
13767;BME280;47980;48.794;9.176;2023-03-01T09:27:37;98717.38;;;3.77;61.29
13767;BME280;47980;48.794;9.176;2023-03-01T09:30:10;98720.25;;;3.96;60.96
13767;BME280;47980;48.794;9.176;2023-03-01T09:32:42;98726.00;;;4.18;60.37
13767;BME280;47980;48.794;9.176;2023-03-01T09:35:14;98719.75;;;3.89;59.52
13767;BME280;47980;48.794;9.176;2023-03-01T09:37:48;98715.78;;;3.91;60.90
13767;BME280;47980;48.794;9.176;2023-03-01T09:40:23;98719.41;;;4.21;60.87
13767;BME280;47980;48.794;9.176;2023-03-01T09:43:00;98718.53;;;4.46;59.68
13767;BME280;47980;48.794;9.176;2023-03-01T09:45:36;98713.81;;;4.43;61.02
13767;BME280;47980;48.794;9.176;2023-03-01T09:48:15;98727.78;;;4.33;58.83
13767;BME280;47980;48.794;9.176;2023-03-01T09:50:48;98718.06;;;4.28;59.01
13767;BME280;47980;48.794;9.176;2023-03-01T09:53:23;98718.00;;;4.49;59.94
13767;BME280;47980;48.794;9.176;2023-03-01T09:56:00;98717.38;;;4.72;58.68
13767;BME280;47980;48.794;9.176;2023-03-01T09:58:41;98701.72;;;4.52;58.66
13767;BME280;47980;48.794;9.176;2023-03-01T10:01:28;98707.09;;;4.81;58.83
13767;BME280;47980;48.794;9.176;2023-03-01T10:04:24;98702.00;;;4.45;58.77
13767;BME280;47980;48.794;9.176;2023-03-01T10:07:05;98691.97;;;4.52;58.65
13767;BME280;47980;48.794;9.176;2023-03-01T10:09:43;98699.47;;;4.79;57.73
13767;BME280;47980;48.794;9.176;2023-03-01T10:12:18;98693.53;;;5.03;57.45
13767;BME280;47980;48.794;9.176;2023-03-01T10:14:57;98677.81;;;4.98;58.31
13767;BME280;47980;48.794;9.176;2023-03-01T10:17:34;98677.47;;;5.10;56.64
13767;BME280;47980;48.794;9.176;2023-03-01T10:20:17;98682.56;;;5.30;56.07
13767;BME280;47980;48.794;9.176;2023-03-01T10:22:50;98675.75;;;5.29;55.52
13767;BME280;47980;48.794;9.176;2023-03-01T10:25:36;98664.97;;;5.25;55.74
13767;BME280;47980;48.794;9.176;2023-03-01T10:28:17;98670.41;;;5.39;55.85
13767;BME280;47980;48.794;9.176;2023-03-01T10:30:51;98663.34;;;5.35;55.43
13767;BME280;47980;48.794;9.176;2023-03-01T10:33:25;98659.13;;;5.34;55.77
13767;BME280;47980;48.794;9.176;2023-03-01T10:35:59;98655.16;;;5.41;55.40
13767;BME280;47980;48.794;9.176;2023-03-01T10:38:47;98654.09;;;5.66;54.83
13767;BME280;47980;48.794;9.176;2023-03-01T10:41:21;98649.75;;;5.57;55.30
13767;BME280;47980;48.794;9.176;2023-03-01T10:43:55;98645.41;;;5.95;54.33
13767;BME280;47980;48.794;9.176;2023-03-01T10:46:30;98635.44;;;6.40;54.32
13767;BME280;47980;48.794;9.176;2023-03-01T10:49:19;98647.94;;;6.29;53.41
13767;BME280;47980;48.794;9.176;2023-03-01T10:52:17;98655.69;;;5.67;54.62
13767;BME280;47980;48.794;9.176;2023-03-01T10:54:55;98647.69;;;5.77;54.32
13767;BME280;47980;48.794;9.176;2023-03-01T10:57:34;98635.06;;;6.03;53.28
13767;BME280;47980;48.794;9.176;2023-03-01T11:00:22;98634.59;;;6.20;53.71
13767;BME280;47980;48.794;9.176;2023-03-01T11:03:10;98629.19;;;6.31;52.85
13767;BME280;47980;48.794;9.176;2023-03-01T11:05:58;98626.13;;;6.23;53.57
13767;BME280;47980;48.794;9.176;2023-03-01T11:08:39;98619.97;;;6.33;52.91
13767;BME280;47980;48.794;9.176;2023-03-01T11:11:22;98613.25;;;6.22;54.34
13767;BME280;47980;48.794;9.176;2023-03-01T11:14:06;98609.00;;;6.45;53.56
13767;BME280;47980;48.794;9.176;2023-03-01T11:16:41;98607.44;;;6.44;52.09
13767;BME280;47980;48.794;9.176;2023-03-01T11:19:19;98603.72;;;6.64;52.71
13767;BME280;47980;48.794;9.176;2023-03-01T11:21:57;98608.56;;;6.38;52.13
13767;BME280;47980;48.794;9.176;2023-03-01T11:24:35;98607.22;;;6.59;53.34
13767;BME280;47980;48.794;9.176;2023-03-01T11:27:17;98597.47;;;5.98;53.54
13767;BME280;47980;48.794;9.176;2023-03-01T11:29:54;98591.31;;;6.64;52.90
13767;BME280;47980;48.794;9.176;2023-03-01T11:32:34;98581.44;;;6.56;52.05
13767;BME280;47980;48.794;9.176;2023-03-01T11:35:14;98576.44;;;6.73;53.24
13767;BME280;47980;48.794;9.176;2023-03-01T11:37:59;98566.25;;;6.99;53.19
13767;BME280;47980;48.794;9.176;2023-03-01T11:40:40;98573.50;;;6.94;52.78
13767;BME280;47980;48.794;9.176;2023-03-01T11:43:19;98562.88;;;6.80;52.44
13767;BME280;47980;48.794;9.176;2023-03-01T11:48:56;98562.13;;;6.80;52.03
13767;BME280;47980;48.794;9.176;2023-03-01T11:51:42;98560.63;;;7.06;51.91
13767;BME280;47980;48.794;9.176;2023-03-01T11:54:30;98553.44;;;7.39;50.95
13767;BME280;47980;48.794;9.176;2023-03-01T11:57:11;98552.19;;;7.51;50.69
13767;BME280;47980;48.794;9.176;2023-03-01T11:59:59;98546.50;;;7.43;52.17
13767;BME280;47980;48.794;9.176;2023-03-01T12:02:52;98524.00;;;7.05;51.58
13767;BME280;47980;48.794;9.176;2023-03-01T12:05:54;98531.06;;;7.37;51.05
13767;BME280;47980;48.794;9.176;2023-03-01T12:08:34;98527.72;;;7.72;51.33
13767;BME280;47980;48.794;9.176;2023-03-01T12:11:17;98525.78;;;7.51;50.70
13767;BME280;47980;48.794;9.176;2023-03-01T12:14:20;98516.84;;;7.88;51.57
13767;BME280;47980;48.794;9.176;2023-03-01T12:17:06;98525.59;;;7.88;49.92
13767;BME280;47980;48.794;9.176;2023-03-01T12:20:02;98510.66;;;7.56;52.10
13767;BME280;47980;48.794;9.176;2023-03-01T12:26:03;98489.09;;;7.77;50.04
13767;BME280;47980;48.794;9.176;2023-03-01T12:28:55;98481.63;;;8.06;49.90
13767;BME280;47980;48.794;9.176;2023-03-01T12:32:00;98482.81;;;7.86;49.10
13767;BME280;47980;48.794;9.176;2023-03-01T12:34:48;98484.63;;;7.77;50.29
13767;BME280;47980;48.794;9.176;2023-03-01T12:37:27;98475.88;;;7.77;50.44
13767;BME280;47980;48.794;9.176;2023-03-01T12:40:17;98477.03;;;7.48;50.96
13767;BME280;47980;48.794;9.176;2023-03-01T12:43:24;98468.97;;;7.81;50.58
13767;BME280;47980;48.794;9.176;2023-03-01T12:46:10;98475.25;;;8.07;50.11
13767;BME280;47980;48.794;9.176;2023-03-01T12:48:51;98445.31;;;7.98;50.19
13767;BME280;47980;48.794;9.176;2023-03-01T12:51:29;98441.63;;;7.99;49.75
13767;BME280;47980;48.794;9.176;2023-03-01T12:54:07;98431.13;;;8.08;50.51
13767;BME280;47980;48.794;9.176;2023-03-01T12:56:43;98430.69;;;7.92;50.41
13767;BME280;47980;48.794;9.176;2023-03-01T12:59:28;98435.31;;;8.09;51.39
13767;BME280;47980;48.794;9.176;2023-03-01T13:02:10;98421.91;;;8.05;49.81
13767;BME280;47980;48.794;9.176;2023-03-01T13:04:57;98419.59;;;8.26;48.94
13767;BME280;47980;48.794;9.176;2023-03-01T13:07:36;98420.50;;;8.22;48.74
13767;BME280;47980;48.794;9.176;2023-03-01T13:10:21;98416.13;;;8.39;49.59
13767;BME280;47980;48.794;9.176;2023-03-01T13:13:13;98412.94;;;8.51;49.46
13767;BME280;47980;48.794;9.176;2023-03-01T13:15:49;98415.34;;;8.39;49.15
13767;BME280;47980;48.794;9.176;2023-03-01T13:18:39;98415.44;;;8.87;49.49
13767;BME280;47980;48.794;9.176;2023-03-01T13:21:10;98414.19;;;8.85;50.09
13767;BME280;47980;48.794;9.176;2023-03-01T13:23:47;98416.81;;;8.85;48.55
13767;BME280;47980;48.794;9.176;2023-03-01T13:26:20;98417.44;;;8.51;49.46
13767;BME280;47980;48.794;9.176;2023-03-01T13:28:54;98412.72;;;8.39;49.89
13767;BME280;47980;48.794;9.176;2023-03-01T13:31:58;98416.31;;;8.43;49.24
13767;BME280;47980;48.794;9.176;2023-03-01T13:34:42;98411.34;;;8.28;49.69
13767;BME280;47980;48.794;9.176;2023-03-01T13:37:32;98410.59;;;8.50;48.26
13767;BME280;47980;48.794;9.176;2023-03-01T13:43:30;98405.69;;;8.65;49.37
13767;BME280;47980;48.794;9.176;2023-03-01T13:46:10;98414.84;;;8.90;49.26
13767;BME280;47980;48.794;9.176;2023-03-01T13:48:45;98402.72;;;8.36;48.72
13767;BME280;47980;48.794;9.176;2023-03-01T13:51:21;98394.28;;;8.56;49.82
13767;BME280;47980;48.794;9.176;2023-03-01T13:53:55;98406.19;;;8.45;49.75
13767;BME280;47980;48.794;9.176;2023-03-01T13:56:36;98407.31;;;8.30;50.08
13767;BME280;47980;48.794;9.176;2023-03-01T13:59:15;98399.16;;;8.63;50.39
13767;BME280;47980;48.794;9.176;2023-03-01T14:01:52;98403.97;;;8.38;49.32
13767;BME280;47980;48.794;9.176;2023-03-01T14:04:26;98402.19;;;8.25;50.23